sensor_id;sensor_type;location;lat;lon;timestamp;P1;durP1;ratioP1;P2;durP2;ratioP2
826;SDS011;395;48.132;11.608;2023-11-19T00:01:40;2.50;;;1.93;;
826;SDS011;395;48.132;11.608;2023-11-19T00:04:06;3.30;;;2.33;;
826;SDS011;395;48.132;11.608;2023-11-19T00:06:33;3.38;;;2.55;;
826;SDS011;395;48.132;11.608;2023-11-19T00:08:59;2.23;;;1.90;;
826;SDS011;395;48.132;11.608;2023-11-19T00:11:25;3.67;;;2.80;;
826;SDS011;395;48.132;11.608;2023-11-19T00:13:51;2.40;;;2.20;;
826;SDS011;395;48.132;11.608;2023-11-19T00:16:17;2.73;;;2.53;;
826;SDS011;395;48.132;11.608;2023-11-19T00:18:43;2.43;;;2.17;;
826;SDS011;395;48.132;11.608;2023-11-19T00:21:09;3.20;;;2.35;;
826;SDS011;395;48.132;11.608;2023-11-19T00:23:35;2.85;;;2.40;;
826;SDS011;395;48.132;11.608;2023-11-19T00:26:01;3.30;;;3.00;;
826;SDS011;395;48.132;11.608;2023-11-19T00:28:27;3.40;;;3.00;;
826;SDS011;395;48.132;11.608;2023-11-19T00:30:53;5.15;;;2.92;;
826;SDS011;395;48.132;11.608;2023-11-19T00:33:20;3.17;;;2.88;;
826;SDS011;395;48.132;11.608;2023-11-19T00:35:46;4.10;;;3.47;;
826;SDS011;395;48.132;11.608;2023-11-19T00:38:13;5.70;;;4.30;;
826;SDS011;395;48.132;11.608;2023-11-19T00:40:39;3.50;;;3.20;;
826;SDS011;395;48.132;11.608;2023-11-19T00:43:06;3.60;;;3.20;;
826;SDS011;395;48.132;11.608;2023-11-19T00:45:32;4.10;;;3.63;;
826;SDS011;395;48.132;11.608;2023-11-19T00:47:58;4.50;;;3.90;;
826;SDS011;395;48.132;11.608;2023-11-19T00:50:24;4.37;;;3.67;;
826;SDS011;395;48.132;11.608;2023-11-19T00:52:51;5.17;;;3.27;;
826;SDS011;395;48.132;11.608;2023-11-19T00:55:17;4.10;;;3.70;;
826;SDS011;395;48.132;11.608;2023-11-19T00:57:43;4.90;;;3.88;;
826;SDS011;395;48.132;11.608;2023-11-19T01:00:09;5.95;;;4.32;;
826;SDS011;395;48.132;11.608;2023-11-19T01:02:44;3.30;;;3.00;;
826;SDS011;395;48.132;11.608;2023-11-19T01:05:10;3.50;;;3.07;;
826;SDS011;395;48.132;11.608;2023-11-19T01:07:39;3.87;;;2.97;;
826;SDS011;395;48.132;11.608;2023-11-19T01:10:05;2.90;;;2.27;;
826;SDS011;395;48.132;11.608;2023-11-19T01:12:33;2.70;;;1.70;;
826;SDS011;395;48.132;11.608;2023-11-19T01:14:59;2.70;;;1.90;;
826;SDS011;395;48.132;11.608;2023-11-19T01:17:26;2.30;;;1.80;;
826;SDS011;395;48.132;11.608;2023-11-19T01:19:52;2.00;;;1.90;;
826;SDS011;395;48.132;11.608;2023-11-19T01:22:18;1.90;;;1.60;;
826;SDS011;395;48.132;11.608;2023-11-19T01:24:44;4.30;;;2.33;;
826;SDS011;395;48.132;11.608;2023-11-19T01:27:10;2.17;;;2.00;;
826;SDS011;395;48.132;11.608;2023-11-19T01:29:36;1.90;;;1.80;;
826;SDS011;395;48.132;11.608;2023-11-19T01:32:03;2.97;;;1.93;;
826;SDS011;395;48.132;11.608;2023-11-19T01:34:29;2.40;;;1.80;;
826;SDS011;395;48.132;11.608;2023-11-19T01:36:55;3.90;;;2.10;;
826;SDS011;395;48.132;11.608;2023-11-19T01:39:21;1.90;;;1.57;;
826;SDS011;395;48.132;11.608;2023-11-19T01:41:47;1.83;;;1.50;;
826;SDS011;395;48.132;11.608;2023-11-19T01:44:13;2.63;;;1.70;;
826;SDS011;395;48.132;11.608;2023-11-19T01:46:43;5.40;;;2.27;;
826;SDS011;395;48.132;11.608;2023-11-19T01:49:10;3.33;;;2.50;;
826;SDS011;395;48.132;11.608;2023-11-19T01:51:37;3.43;;;2.50;;
826;SDS011;395;48.132;11.608;2023-11-19T01:54:03;2.73;;;2.53;;
826;SDS011;395;48.132;11.608;2023-11-19T01:56:29;2.57;;;2.23;;
826;SDS011;395;48.132;11.608;2023-11-19T01:58:56;2.00;;;1.80;;
826;SDS011;395;48.132;11.608;2023-11-19T02:01:22;1.63;;;1.53;;
826;SDS011;395;48.132;11.608;2023-11-19T02:03:49;1.73;;;1.60;;
826;SDS011;395;48.132;11.608;2023-11-19T02:06:15;3.00;;;1.50;;
826;SDS011;395;48.132;11.608;2023-11-19T02:08:42;1.30;;;1.20;;
826;SDS011;395;48.132;11.608;2023-11-19T02:11:08;4.63;;;1.30;;
826;SDS011;395;48.132;11.608;2023-11-19T02:13:34;2.73;;;1.17;;
826;SDS011;395;48.132;11.608;2023-11-19T02:16:03;2.40;;;1.33;;
826;SDS011;395;48.132;11.608;2023-11-19T02:18:29;2.20;;;1.53;;
826;SDS011;395;48.132;11.608;2023-11-19T02:20:56;1.80;;;1.70;;
826;SDS011;395;48.132;11.608;2023-11-19T02:23:22;2.30;;;1.63;;
826;SDS011;395;48.132;11.608;2023-11-19T02:26:25;1.57;;;1.47;;
826;SDS011;395;48.132;11.608;2023-11-19T02:28:41;1.63;;;1.53;;
826;SDS011;395;48.132;11.608;2023-11-19T02:31:08;1.37;;;1.30;;
826;SDS011;395;48.132;11.608;2023-11-19T02:33:35;1.63;;;1.13;;
826;SDS011;395;48.132;11.608;2023-11-19T02:36:02;1.20;;;1.10;;
826;SDS011;395;48.132;11.608;2023-11-19T02:38:29;1.77;;;1.63;;
826;SDS011;395;48.132;11.608;2023-11-19T02:40:56;0.80;;;0.80;;
826;SDS011;395;48.132;11.608;2023-11-19T02:43:22;1.10;;;1.00;;
826;SDS011;395;48.132;11.608;2023-11-19T02:45:48;1.10;;;0.90;;
826;SDS011;395;48.132;11.608;2023-11-19T02:48:14;0.90;;;0.90;;
826;SDS011;395;48.132;11.608;2023-11-19T02:50:41;1.20;;;0.80;;
826;SDS011;395;48.132;11.608;2023-11-19T02:53:07;2.07;;;0.90;;
826;SDS011;395;48.132;11.608;2023-11-19T02:55:33;1.73;;;1.00;;
826;SDS011;395;48.132;11.608;2023-11-19T02:58:03;1.37;;;1.00;;
826;SDS011;395;48.132;11.608;2023-11-19T03:00:45;1.30;;;1.13;;
826;SDS011;395;48.132;11.608;2023-11-19T03:03:21;1.17;;;1.07;;
826;SDS011;395;48.132;11.608;2023-11-19T03:05:51;1.50;;;0.90;;
826;SDS011;395;48.132;11.608;2023-11-19T03:08:17;1.30;;;1.00;;
826;SDS011;395;48.132;11.608;2023-11-19T03:10:43;0.80;;;0.80;;
826;SDS011;395;48.132;11.608;2023-11-19T03:13:11;1.10;;;1.00;;
826;SDS011;395;48.132;11.608;2023-11-19T03:15:42;1.20;;;0.80;;
826;SDS011;395;48.132;11.608;2023-11-19T03:18:08;1.10;;;1.00;;
826;SDS011;395;48.132;11.608;2023-11-19T03:20:34;1.53;;;0.93;;
826;SDS011;395;48.132;11.608;2023-11-19T03:23:00;1.03;;;1.00;;
826;SDS011;395;48.132;11.608;2023-11-19T03:25:26;2.70;;;0.80;;
826;SDS011;395;48.132;11.608;2023-11-19T03:27:58;1.00;;;0.90;;
826;SDS011;395;48.132;11.608;2023-11-19T03:30:24;1.47;;;1.00;;
826;SDS011;395;48.132;11.608;2023-11-19T03:32:50;1.03;;;0.93;;
826;SDS011;395;48.132;11.608;2023-11-19T03:35:16;1.23;;;1.10;;
826;SDS011;395;48.132;11.608;2023-11-19T03:37:42;1.80;;;1.10;;
826;SDS011;395;48.132;11.608;2023-11-19T03:40:09;1.30;;;1.13;;
826;SDS011;395;48.132;11.608;2023-11-19T03:42:35;0.97;;;0.90;;
826;SDS011;395;48.132;11.608;2023-11-19T03:45:01;0.93;;;0.87;;
826;SDS011;395;48.132;11.608;2023-11-19T03:47:29;1.03;;;0.90;;
826;SDS011;395;48.132;11.608;2023-11-19T03:49:55;1.63;;;1.50;;
826;SDS011;395;48.132;11.608;2023-11-19T03:52:21;1.13;;;0.87;;
826;SDS011;395;48.132;11.608;2023-11-19T03:54:47;1.47;;;1.30;;
826;SDS011;395;48.132;11.608;2023-11-19T03:57:13;3.23;;;1.00;;
826;SDS011;395;48.132;11.608;2023-11-19T03:59:40;0.87;;;0.87;;
826;SDS011;395;48.132;11.608;2023-11-19T04:02:06;2.10;;;1.50;;
826;SDS011;395;48.132;11.608;2023-11-19T04:04:32;1.40;;;1.10;;
826;SDS011;395;48.132;11.608;2023-11-19T04:06:59;2.07;;;1.17;;
826;SDS011;395;48.132;11.608;2023-11-19T04:09:25;1.73;;;1.20;;
826;SDS011;395;48.132;11.608;2023-11-19T04:11:51;1.47;;;1.37;;
826;SDS011;395;48.132;11.608;2023-11-19T04:14:17;1.17;;;0.90;;
826;SDS011;395;48.132;11.608;2023-11-19T04:16:44;2.30;;;1.07;;
826;SDS011;395;48.132;11.608;2023-11-19T04:19:10;1.23;;;1.10;;
826;SDS011;395;48.132;11.608;2023-11-19T04:21:36;1.00;;;0.90;;
826;SDS011;395;48.132;11.608;2023-11-19T04:24:02;1.10;;;1.00;;
826;SDS011;395;48.132;11.608;2023-11-19T04:26:28;1.17;;;1.07;;
826;SDS011;395;48.132;11.608;2023-11-19T04:28:56;1.47;;;1.20;;
826;SDS011;395;48.132;11.608;2023-11-19T04:31:22;0.87;;;0.80;;
826;SDS011;395;48.132;11.608;2023-11-19T04:33:48;1.57;;;1.20;;
826;SDS011;395;48.132;11.608;2023-11-19T04:36:18;1.30;;;1.00;;
826;SDS011;395;48.132;11.608;2023-11-19T04:38:44;1.10;;;0.97;;
826;SDS011;395;48.132;11.608;2023-11-19T04:41:11;1.17;;;0.90;;
826;SDS011;395;48.132;11.608;2023-11-19T04:43:37;2.13;;;1.00;;
826;SDS011;395;48.132;11.608;2023-11-19T04:46:03;2.10;;;0.97;;
826;SDS011;395;48.132;11.608;2023-11-19T04:48:29;1.00;;;0.90;;
826;SDS011;395;48.132;11.608;2023-11-19T04:50:55;1.73;;;0.90;;
826;SDS011;395;48.132;11.608;2023-11-19T04:53:21;1.17;;;0.90;;
826;SDS011;395;48.132;11.608;2023-11-19T04:55:47;1.13;;;0.90;;
826;SDS011;395;48.132;11.608;2023-11-19T04:58:13;1.23;;;0.90;;
826;SDS011;395;48.132;11.608;2023-11-19T05:00:39;2.70;;;0.50;;
826;SDS011;395;48.132;11.608;2023-11-19T05:03:05;1.83;;;0.70;;
826;SDS011;395;48.132;11.608;2023-11-19T05:05:33;0.80;;;0.50;;
826;SDS011;395;48.132;11.608;2023-11-19T05:07:59;0.50;;;0.50;;
826;SDS011;395;48.132;11.608;2023-11-19T05:10:25;0.70;;;0.57;;
826;SDS011;395;48.132;11.608;2023-11-19T05:12:51;0.50;;;0.50;;
826;SDS011;395;48.132;11.608;2023-11-19T05:15:17;0.53;;;0.53;;
826;SDS011;395;48.132;11.608;2023-11-19T05:17:43;0.50;;;0.50;;
826;SDS011;395;48.132;11.608;2023-11-19T05:20:10;0.50;;;0.47;;
826;SDS011;395;48.132;11.608;2023-11-19T05:22:41;0.77;;;0.60;;
826;SDS011;395;48.132;11.608;2023-11-19T05:25:07;1.43;;;0.63;;
826;SDS011;395;48.132;11.608;2023-11-19T05:27:36;1.50;;;0.67;;
826;SDS011;395;48.132;11.608;2023-11-19T05:30:05;0.67;;;0.50;;
826;SDS011;395;48.132;11.608;2023-11-19T05:32:35;0.90;;;0.63;;
826;SDS011;395;48.132;11.608;2023-11-19T05:35:01;2.90;;;0.90;;
826;SDS011;395;48.132;11.608;2023-11-19T05:37:27;1.70;;;0.50;;
826;SDS011;395;48.132;11.608;2023-11-19T05:39:53;0.60;;;0.60;;
826;SDS011;395;48.132;11.608;2023-11-19T05:42:19;0.60;;;0.60;;
826;SDS011;395;48.132;11.608;2023-11-19T05:44:45;0.70;;;0.70;;
826;SDS011;395;48.132;11.608;2023-11-19T05:47:12;0.90;;;0.90;;
826;SDS011;395;48.132;11.608;2023-11-19T05:49:38;0.80;;;0.80;;
826;SDS011;395;48.132;11.608;2023-11-19T05:52:04;0.60;;;0.60;;
826;SDS011;395;48.132;11.608;2023-11-19T05:54:32;0.63;;;0.50;;
826;SDS011;395;48.132;11.608;2023-11-19T05:57:03;1.13;;;0.60;;
826;SDS011;395;48.132;11.608;2023-11-19T05:59:29;1.00;;;0.80;;
826;SDS011;395;48.132;11.608;2023-11-19T06:01:57;0.70;;;0.70;;
826;SDS011;395;48.132;11.608;2023-11-19T06:04:23;0.67;;;0.67;;
826;SDS011;395;48.132;11.608;2023-11-19T06:06:49;1.37;;;0.70;;
826;SDS011;395;48.132;11.608;2023-11-19T06:09:15;0.90;;;0.60;;
826;SDS011;395;48.132;11.608;2023-11-19T06:11:43;0.70;;;0.63;;
826;SDS011;395;48.132;11.608;2023-11-19T06:14:09;0.50;;;0.50;;
826;SDS011;395;48.132;11.608;2023-11-19T06:16:36;0.50;;;0.50;;
826;SDS011;395;48.132;11.608;2023-11-19T06:19:04;0.80;;;0.50;;
826;SDS011;395;48.132;11.608;2023-11-19T06:21:30;0.50;;;0.40;;
826;SDS011;395;48.132;11.608;2023-11-19T06:23:56;1.00;;;0.50;;
826;SDS011;395;48.132;11.608;2023-11-19T06:26:24;0.73;;;0.60;;
826;SDS011;395;48.132;11.608;2023-11-19T06:28:50;0.50;;;0.50;;
826;SDS011;395;48.132;11.608;2023-11-19T06:31:16;1.33;;;0.47;;
826;SDS011;395;48.132;11.608;2023-11-19T06:33:42;0.80;;;0.60;;
826;SDS011;395;48.132;11.608;2023-11-19T06:36:08;1.10;;;0.77;;
826;SDS011;395;48.132;11.608;2023-11-19T06:38:35;0.70;;;0.60;;
826;SDS011;395;48.132;11.608;2023-11-19T06:41:01;0.80;;;0.60;;
826;SDS011;395;48.132;11.608;2023-11-19T06:43:27;1.30;;;0.53;;
826;SDS011;395;48.132;11.608;2023-11-19T06:45:53;0.57;;;0.57;;
826;SDS011;395;48.132;11.608;2023-11-19T06:48:19;0.70;;;0.60;;
826;SDS011;395;48.132;11.608;2023-11-19T06:50:45;1.17;;;0.40;;
826;SDS011;395;48.132;11.608;2023-11-19T06:53:11;0.80;;;0.53;;
826;SDS011;395;48.132;11.608;2023-11-19T06:55:37;0.50;;;0.50;;
826;SDS011;395;48.132;11.608;2023-11-19T06:58:05;0.40;;;0.40;;
826;SDS011;395;48.132;11.608;2023-11-19T07:00:32;0.50;;;0.40;;
826;SDS011;395;48.132;11.608;2023-11-19T07:02:58;1.03;;;0.60;;
826;SDS011;395;48.132;11.608;2023-11-19T07:05:24;0.60;;;0.40;;
826;SDS011;395;48.132;11.608;2023-11-19T07:07:51;0.70;;;0.50;;
826;SDS011;395;48.132;11.608;2023-11-19T07:10:17;0.80;;;0.40;;
826;SDS011;395;48.132;11.608;2023-11-19T07:12:43;1.00;;;0.40;;
826;SDS011;395;48.132;11.608;2023-11-19T07:15:10;0.50;;;0.50;;
826;SDS011;395;48.132;11.608;2023-11-19T07:17:38;0.50;;;0.40;;
826;SDS011;395;48.132;11.608;2023-11-19T07:20:05;0.70;;;0.60;;
826;SDS011;395;48.132;11.608;2023-11-19T07:22:31;0.50;;;0.50;;
826;SDS011;395;48.132;11.608;2023-11-19T07:24:57;0.60;;;0.50;;
826;SDS011;395;48.132;11.608;2023-11-19T07:27:23;0.50;;;0.50;;
826;SDS011;395;48.132;11.608;2023-11-19T07:29:49;0.47;;;0.30;;
826;SDS011;395;48.132;11.608;2023-11-19T07:32:16;0.73;;;0.60;;
826;SDS011;395;48.132;11.608;2023-11-19T07:34:43;0.60;;;0.30;;
826;SDS011;395;48.132;11.608;2023-11-19T07:37:09;0.40;;;0.30;;
826;SDS011;395;48.132;11.608;2023-11-19T07:39:35;0.60;;;0.47;;
826;SDS011;395;48.132;11.608;2023-11-19T07:42:03;0.40;;;0.30;;
826;SDS011;395;48.132;11.608;2023-11-19T07:44:29;0.60;;;0.50;;
826;SDS011;395;48.132;11.608;2023-11-19T07:46:55;0.70;;;0.30;;
826;SDS011;395;48.132;11.608;2023-11-19T07:49:21;0.40;;;0.37;;
826;SDS011;395;48.132;11.608;2023-11-19T07:51:47;0.40;;;0.20;;
826;SDS011;395;48.132;11.608;2023-11-19T07:54:13;0.90;;;0.43;;
826;SDS011;395;48.132;11.608;2023-11-19T07:56:39;0.60;;;0.50;;
826;SDS011;395;48.132;11.608;2023-11-19T07:59:05;0.50;;;0.50;;
826;SDS011;395;48.132;11.608;2023-11-19T08:01:31;0.70;;;0.50;;
826;SDS011;395;48.132;11.608;2023-11-19T08:03:57;1.10;;;0.47;;
826;SDS011;395;48.132;11.608;2023-11-19T08:06:24;0.50;;;0.50;;
826;SDS011;395;48.132;11.608;2023-11-19T08:08:50;0.77;;;0.50;;
826;SDS011;395;48.132;11.608;2023-11-19T08:11:16;0.93;;;0.67;;
826;SDS011;395;48.132;11.608;2023-11-19T08:13:44;0.70;;;0.60;;
826;SDS011;395;48.132;11.608;2023-11-19T08:16:10;1.07;;;0.80;;
826;SDS011;395;48.132;11.608;2023-11-19T08:18:36;0.60;;;0.60;;
826;SDS011;395;48.132;11.608;2023-11-19T08:21:03;0.60;;;0.43;;
826;SDS011;395;48.132;11.608;2023-11-19T08:23:29;0.90;;;0.53;;
826;SDS011;395;48.132;11.608;2023-11-19T08:25:55;1.37;;;0.50;;
826;SDS011;395;48.132;11.608;2023-11-19T08:28:21;0.60;;;0.60;;
826;SDS011;395;48.132;11.608;2023-11-19T08:30:47;0.50;;;0.50;;
826;SDS011;395;48.132;11.608;2023-11-19T08:33:13;0.60;;;0.50;;
826;SDS011;395;48.132;11.608;2023-11-19T08:35:40;0.50;;;0.50;;
826;SDS011;395;48.132;11.608;2023-11-19T08:38:06;0.60;;;0.57;;
826;SDS011;395;48.132;11.608;2023-11-19T08:40:32;0.77;;;0.60;;
826;SDS011;395;48.132;11.608;2023-11-19T08:42:58;0.57;;;0.40;;
826;SDS011;395;48.132;11.608;2023-11-19T08:45:24;0.60;;;0.50;;
826;SDS011;395;48.132;11.608;2023-11-19T08:47:50;0.80;;;0.63;;
826;SDS011;395;48.132;11.608;2023-11-19T08:50:16;0.50;;;0.50;;
826;SDS011;395;48.132;11.608;2023-11-19T08:52:42;0.83;;;0.70;;
826;SDS011;395;48.132;11.608;2023-11-19T08:55:09;0.73;;;0.60;;
826;SDS011;395;48.132;11.608;2023-11-19T08:57:36;0.70;;;0.60;;
826;SDS011;395;48.132;11.608;2023-11-19T09:00:03;0.67;;;0.63;;
826;SDS011;395;48.132;11.608;2023-11-19T09:02:32;0.43;;;0.43;;
826;SDS011;395;48.132;11.608;2023-11-19T09:04:58;0.80;;;0.60;;
826;SDS011;395;48.132;11.608;2023-11-19T09:07:24;1.43;;;0.83;;
826;SDS011;395;48.132;11.608;2023-11-19T09:09:50;0.50;;;0.50;;
826;SDS011;395;48.132;11.608;2023-11-19T09:12:16;0.80;;;0.60;;
826;SDS011;395;48.132;11.608;2023-11-19T09:14:42;0.60;;;0.50;;
826;SDS011;395;48.132;11.608;2023-11-19T09:17:08;0.90;;;0.80;;
826;SDS011;395;48.132;11.608;2023-11-19T09:19:35;0.50;;;0.40;;
826;SDS011;395;48.132;11.608;2023-11-19T09:22:01;1.00;;;0.80;;
826;SDS011;395;48.132;11.608;2023-11-19T09:24:27;0.90;;;0.60;;
826;SDS011;395;48.132;11.608;2023-11-19T09:26:53;0.50;;;0.40;;
826;SDS011;395;48.132;11.608;2023-11-19T09:29:21;0.73;;;0.73;;
826;SDS011;395;48.132;11.608;2023-11-19T09:31:47;0.60;;;0.40;;
826;SDS011;395;48.132;11.608;2023-11-19T09:34:13;2.37;;;0.70;;
826;SDS011;395;48.132;11.608;2023-11-19T09:36:39;0.50;;;0.50;;
826;SDS011;395;48.132;11.608;2023-11-19T09:39:09;1.03;;;0.80;;
826;SDS011;395;48.132;11.608;2023-11-19T09:41:35;0.70;;;0.67;;
826;SDS011;395;48.132;11.608;2023-11-19T09:44:01;0.70;;;0.70;;
826;SDS011;395;48.132;11.608;2023-11-19T09:46:27;0.70;;;0.70;;
826;SDS011;395;48.132;11.608;2023-11-19T09:48:54;2.87;;;0.57;;
826;SDS011;395;48.132;11.608;2023-11-19T09:51:21;1.17;;;0.70;;
826;SDS011;395;48.132;11.608;2023-11-19T09:53:47;0.90;;;0.67;;
826;SDS011;395;48.132;11.608;2023-11-19T09:56:14;1.07;;;0.67;;
826;SDS011;395;48.132;11.608;2023-11-19T09:58:42;0.70;;;0.70;;
826;SDS011;395;48.132;11.608;2023-11-19T10:01:08;2.30;;;0.93;;
826;SDS011;395;48.132;11.608;2023-11-19T10:03:37;0.70;;;0.63;;
826;SDS011;395;48.132;11.608;2023-11-19T10:06:06;0.70;;;0.70;;
826;SDS011;395;48.132;11.608;2023-11-19T10:08:32;1.07;;;0.90;;
826;SDS011;395;48.132;11.608;2023-11-19T10:10:58;0.83;;;0.73;;
826;SDS011;395;48.132;11.608;2023-11-19T10:13:30;1.50;;;0.90;;
826;SDS011;395;48.132;11.608;2023-11-19T10:15:56;0.87;;;0.67;;
826;SDS011;395;48.132;11.608;2023-11-19T10:18:26;0.63;;;0.60;;
826;SDS011;395;48.132;11.608;2023-11-19T10:20:52;0.60;;;0.60;;
826;SDS011;395;48.132;11.608;2023-11-19T10:23:20;2.40;;;0.80;;
826;SDS011;395;48.132;11.608;2023-11-19T10:25:46;0.77;;;0.77;;
826;SDS011;395;48.132;11.608;2023-11-19T10:28:14;0.90;;;0.77;;
826;SDS011;395;48.132;11.608;2023-11-19T10:30:42;0.87;;;0.60;;
826;SDS011;395;48.132;11.608;2023-11-19T10:33:09;0.80;;;0.70;;
826;SDS011;395;48.132;11.608;2023-11-19T10:35:36;0.77;;;0.60;;
826;SDS011;395;48.132;11.608;2023-11-19T10:38:21;1.03;;;0.70;;
826;SDS011;395;48.132;11.608;2023-11-19T10:40:47;1.53;;;0.70;;
826;SDS011;395;48.132;11.608;2023-11-19T10:43:14;1.07;;;0.50;;
826;SDS011;395;48.132;11.608;2023-11-19T10:45:40;0.80;;;0.60;;
826;SDS011;395;48.132;11.608;2023-11-19T10:48:06;1.53;;;0.47;;
826;SDS011;395;48.132;11.608;2023-11-19T10:50:36;1.70;;;0.70;;
826;SDS011;395;48.132;11.608;2023-11-19T10:53:03;0.70;;;0.40;;
826;SDS011;395;48.132;11.608;2023-11-19T10:55:33;0.40;;;0.40;;
826;SDS011;395;48.132;11.608;2023-11-19T10:58:06;1.87;;;0.40;;
826;SDS011;395;48.132;11.608;2023-11-19T11:01:18;0.60;;;0.40;;
826;SDS011;395;48.132;11.608;2023-11-19T11:03:19;0.70;;;0.40;;
826;SDS011;395;48.132;11.608;2023-11-19T11:05:49;0.70;;;0.60;;
826;SDS011;395;48.132;11.608;2023-11-19T11:08:15;0.73;;;0.47;;
826;SDS011;395;48.132;11.608;2023-11-19T11:10:44;0.70;;;0.60;;
826;SDS011;395;48.132;11.608;2023-11-19T11:13:10;0.70;;;0.33;;
826;SDS011;395;48.132;11.608;2023-11-19T11:15:37;0.50;;;0.40;;
826;SDS011;395;48.132;11.608;2023-11-19T11:18:04;1.13;;;0.90;;
826;SDS011;395;48.132;11.608;2023-11-19T11:20:32;0.63;;;0.47;;
826;SDS011;395;48.132;11.608;2023-11-19T11:28:05;0.63;;;0.63;;
826;SDS011;395;48.132;11.608;2023-11-19T11:33:13;0.40;;;0.40;;
826;SDS011;395;48.132;11.608;2023-11-19T11:36:23;0.60;;;0.50;;
826;SDS011;395;48.132;11.608;2023-11-19T11:38:30;0.60;;;0.40;;
826;SDS011;395;48.132;11.608;2023-11-19T11:41:20;0.63;;;0.40;;
826;SDS011;395;48.132;11.608;2023-11-19T11:48:57;1.27;;;0.40;;
826;SDS011;395;48.132;11.608;2023-11-19T11:51:57;0.40;;;0.20;;
826;SDS011;395;48.132;11.608;2023-11-19T11:54:10;0.50;;;0.30;;
826;SDS011;395;48.132;11.608;2023-11-19T11:56:37;0.70;;;0.50;;
826;SDS011;395;48.132;11.608;2023-11-19T11:59:07;0.90;;;0.43;;
826;SDS011;395;48.132;11.608;2023-11-19T12:01:33;0.60;;;0.40;;
826;SDS011;395;48.132;11.608;2023-11-19T12:04:00;0.30;;;0.20;;
826;SDS011;395;48.132;11.608;2023-11-19T12:06:27;0.50;;;0.40;;
826;SDS011;395;48.132;11.608;2023-11-19T12:08:58;0.60;;;0.37;;
826;SDS011;395;48.132;11.608;2023-11-19T12:11:25;1.50;;;1.30;;
826;SDS011;395;48.132;11.608;2023-11-19T12:13:53;1.83;;;1.20;;
826;SDS011;395;48.132;11.608;2023-11-19T12:16:21;1.70;;;1.60;;
826;SDS011;395;48.132;11.608;2023-11-19T12:18:47;2.40;;;2.20;;
826;SDS011;395;48.132;11.608;2023-11-19T12:21:27;0.40;;;0.40;;
826;SDS011;395;48.132;11.608;2023-11-19T12:23:54;0.90;;;0.90;;
826;SDS011;395;48.132;11.608;2023-11-19T12:26:21;1.33;;;0.60;;
826;SDS011;395;48.132;11.608;2023-11-19T12:28:57;0.67;;;0.33;;
826;SDS011;395;48.132;11.608;2023-11-19T12:31:23;0.50;;;0.40;;
826;SDS011;395;48.132;11.608;2023-11-19T12:33:50;2.23;;;0.40;;
826;SDS011;395;48.132;11.608;2023-11-19T12:36:17;0.60;;;0.50;;
826;SDS011;395;48.132;11.608;2023-11-19T12:38:43;1.00;;;0.50;;
826;SDS011;395;48.132;11.608;2023-11-19T12:41:10;0.50;;;0.40;;
826;SDS011;395;48.132;11.608;2023-11-19T12:43:38;0.40;;;0.40;;
826;SDS011;395;48.132;11.608;2023-11-19T12:46:19;0.80;;;0.50;;
826;SDS011;395;48.132;11.608;2023-11-19T12:48:46;0.50;;;0.40;;
826;SDS011;395;48.132;11.608;2023-11-19T12:51:12;0.37;;;0.33;;
826;SDS011;395;48.132;11.608;2023-11-19T12:53:48;0.40;;;0.30;;
826;SDS011;395;48.132;11.608;2023-11-19T12:56:15;0.90;;;0.60;;
826;SDS011;395;48.132;11.608;2023-11-19T12:58:41;0.70;;;0.47;;
826;SDS011;395;48.132;11.608;2023-11-19T13:01:08;0.60;;;0.50;;
826;SDS011;395;48.132;11.608;2023-11-19T13:03:37;0.70;;;0.43;;
826;SDS011;395;48.132;11.608;2023-11-19T13:06:10;1.37;;;0.53;;
826;SDS011;395;48.132;11.608;2023-11-19T13:08:43;0.80;;;0.53;;
826;SDS011;395;48.132;11.608;2023-11-19T13:11:09;1.00;;;0.60;;
826;SDS011;395;48.132;11.608;2023-11-19T13:14:18;0.70;;;0.40;;
826;SDS011;395;48.132;11.608;2023-11-19T13:16:25;1.80;;;0.50;;
826;SDS011;395;48.132;11.608;2023-11-19T13:18:52;1.00;;;0.67;;
826;SDS011;395;48.132;11.608;2023-11-19T13:21:18;2.00;;;0.70;;
826;SDS011;395;48.132;11.608;2023-11-19T13:23:44;1.10;;;0.63;;
826;SDS011;395;48.132;11.608;2023-11-19T13:26:10;0.80;;;0.40;;
826;SDS011;395;48.132;11.608;2023-11-19T13:28:37;0.90;;;0.60;;
826;SDS011;395;48.132;11.608;2023-11-19T13:31:03;2.93;;;0.70;;
826;SDS011;395;48.132;11.608;2023-11-19T13:33:29;0.60;;;0.50;;
826;SDS011;395;48.132;11.608;2023-11-19T13:35:55;1.00;;;0.50;;
826;SDS011;395;48.132;11.608;2023-11-19T13:38:22;0.50;;;0.40;;
826;SDS011;395;48.132;11.608;2023-11-19T13:40:51;2.63;;;0.53;;
826;SDS011;395;48.132;11.608;2023-11-19T13:43:17;3.00;;;1.00;;
826;SDS011;395;48.132;11.608;2023-11-19T13:45:43;1.47;;;1.00;;
826;SDS011;395;48.132;11.608;2023-11-19T13:48:09;1.10;;;0.90;;
826;SDS011;395;48.132;11.608;2023-11-19T13:50:35;5.40;;;0.80;;
826;SDS011;395;48.132;11.608;2023-11-19T13:53:01;0.50;;;0.50;;
826;SDS011;395;48.132;11.608;2023-11-19T13:55:27;1.23;;;0.57;;
826;SDS011;395;48.132;11.608;2023-11-19T13:57:53;0.80;;;0.63;;
826;SDS011;395;48.132;11.608;2023-11-19T14:00:19;1.23;;;0.60;;
826;SDS011;395;48.132;11.608;2023-11-19T14:02:47;1.00;;;0.90;;
826;SDS011;395;48.132;11.608;2023-11-19T14:05:14;1.10;;;1.00;;
826;SDS011;395;48.132;11.608;2023-11-19T14:07:42;3.13;;;1.00;;
826;SDS011;395;48.132;11.608;2023-11-19T14:10:08;0.80;;;0.80;;
826;SDS011;395;48.132;11.608;2023-11-19T14:12:36;0.50;;;0.50;;
826;SDS011;395;48.132;11.608;2023-11-19T14:15:03;0.97;;;0.73;;
826;SDS011;395;48.132;11.608;2023-11-19T14:17:30;0.60;;;0.50;;
826;SDS011;395;48.132;11.608;2023-11-19T14:19:56;0.90;;;0.70;;
826;SDS011;395;48.132;11.608;2023-11-19T14:22:22;1.00;;;0.90;;
826;SDS011;395;48.132;11.608;2023-11-19T14:24:49;0.60;;;0.50;;
826;SDS011;395;48.132;11.608;2023-11-19T14:27:16;1.13;;;0.63;;
826;SDS011;395;48.132;11.608;2023-11-19T14:29:42;0.70;;;0.70;;
826;SDS011;395;48.132;11.608;2023-11-19T14:32:10;1.60;;;0.70;;
826;SDS011;395;48.132;11.608;2023-11-19T14:34:36;1.40;;;0.70;;
826;SDS011;395;48.132;11.608;2023-11-19T14:37:02;1.90;;;0.80;;
826;SDS011;395;48.132;11.608;2023-11-19T14:39:28;1.07;;;0.70;;
826;SDS011;395;48.132;11.608;2023-11-19T14:41:56;0.80;;;0.70;;
826;SDS011;395;48.132;11.608;2023-11-19T14:44:25;1.33;;;0.70;;
826;SDS011;395;48.132;11.608;2023-11-19T14:46:51;0.90;;;0.77;;
826;SDS011;395;48.132;11.608;2023-11-19T14:49:17;0.70;;;0.50;;
826;SDS011;395;48.132;11.608;2023-11-19T14:51:43;0.53;;;0.53;;
826;SDS011;395;48.132;11.608;2023-11-19T14:54:09;0.70;;;0.50;;
826;SDS011;395;48.132;11.608;2023-11-19T14:56:35;0.53;;;0.53;;
826;SDS011;395;48.132;11.608;2023-11-19T14:59:03;0.80;;;0.50;;
826;SDS011;395;48.132;11.608;2023-11-19T15:01:29;0.97;;;0.87;;
826;SDS011;395;48.132;11.608;2023-11-19T15:03:55;1.20;;;0.70;;
826;SDS011;395;48.132;11.608;2023-11-19T15:06:25;0.60;;;0.50;;
826;SDS011;395;48.132;11.608;2023-11-19T15:08:52;1.30;;;0.77;;
826;SDS011;395;48.132;11.608;2023-11-19T15:11:18;0.90;;;0.67;;
826;SDS011;395;48.132;11.608;2023-11-19T15:13:44;0.80;;;0.80;;
826;SDS011;395;48.132;11.608;2023-11-19T15:16:10;1.07;;;0.87;;
826;SDS011;395;48.132;11.608;2023-11-19T15:18:37;1.93;;;0.73;;
826;SDS011;395;48.132;11.608;2023-11-19T15:21:03;0.87;;;0.80;;
826;SDS011;395;48.132;11.608;2023-11-19T15:23:29;0.60;;;0.60;;
826;SDS011;395;48.132;11.608;2023-11-19T15:25:55;0.60;;;0.60;;
826;SDS011;395;48.132;11.608;2023-11-19T15:28:21;0.70;;;0.60;;
826;SDS011;395;48.132;11.608;2023-11-19T15:30:48;0.83;;;0.83;;
826;SDS011;395;48.132;11.608;2023-11-19T15:33:14;3.97;;;1.10;;
826;SDS011;395;48.132;11.608;2023-11-19T15:35:40;0.77;;;0.77;;
826;SDS011;395;48.132;11.608;2023-11-19T15:38:06;1.57;;;1.00;;
826;SDS011;395;48.132;11.608;2023-11-19T15:40:34;0.70;;;0.60;;
826;SDS011;395;48.132;11.608;2023-11-19T15:43:02;0.70;;;0.67;;